Time;durP1;ratioP1;P1;durP2;ratioP2;P2;SDS_P1;SDS_P2;PMS_P1;PMS_P2;Temp;Humidity;BMP_temperature;BMP_pressure;BME280_temperature;BME280_humidity;BME280_pressure;Samples;Min_cycle;Max_cycle;Signal;HPM_P1;HPM_P2
2022/08/25 00:01:28;;;;;;;12.13;4.95;;;;;;;22.33;48.10;99860.16;1760050;81;21000;-43
2022/08/25 00:03:55;;;;;;;8.95;4.58;;;;;;;22.30;48.14;99861.63;1736673;81;21518;-43
2022/08/25 00:06:22;;;;;;;12.60;5.83;;;;;;;22.27;48.23;99856.97;1729222;81;22395;-43
2022/08/25 00:08:49;;;;;;;10.80;5.42;;;;;;;22.25;48.19;99861.53;1753017;81;21088;-43
2022/08/25 00:11:20;;;;;;;15.53;5.58;;;;;;;22.24;48.28;99861.94;1754592;81;21688;-43
2022/08/25 00:13:52;;;;;;;11.60;5.37;;;;;;;22.23;48.26;99860.38;1734161;81;20943;-43
2022/08/25 00:16:21;;;;;;;11.33;4.90;;;;;;;22.20;48.45;99864.00;1749296;81;21490;-43
2022/08/25 00:18:51;;;;;;;11.93;5.58;;;;;;;22.19;48.37;99869.34;1759560;81;21826;-43
2022/08/25 00:21:18;;;;;;;12.03;5.33;;;;;;;22.15;48.34;99865.88;1759797;81;22155;-43
2022/08/25 00:23:45;;;;;;;9.50;5.08;;;;;;;22.12;48.29;99860.62;1760182;81;20928;-43
2022/08/25 00:26:12;;;;;;;12.35;4.92;;;;;;;22.11;48.30;99861.81;1760302;81;21166;-43
2022/08/25 00:28:40;;;;;;;11.65;5.17;;;;;;;22.09;48.37;99861.45;1759310;81;21593;-43
2022/08/25 00:31:12;;;;;;;11.95;5.05;;;;;;;22.08;48.38;99862.05;1755151;81;21239;-44
2022/08/25 00:33:39;;;;;;;12.55;5.33;;;;;;;22.06;48.30;99860.93;1727856;81;20975;-43
2022/08/25 00:36:06;;;;;;;11.05;4.85;;;;;;;22.01;48.23;99864.97;1760738;81;21526;-43
2022/08/25 00:38:33;;;;;;;10.58;4.60;;;;;;;21.99;48.23;99860.45;1760179;81;20924;-43
2022/08/25 00:41:07;;;;;;;11.45;5.30;;;;;;;21.98;48.28;99863.64;1759672;81;21027;-43
2022/08/25 00:43:54;;;;;;;9.95;5.17;;;;;;;21.96;48.33;99865.46;1761060;81;23137;-43
2022/08/25 00:46:24;;;;;;;10.55;4.95;;;;;;;21.94;48.24;99863.71;1761510;81;21532;-43
2022/08/25 00:48:59;;;;;;;14.40;5.70;;;;;;;21.91;48.29;99857.64;1759314;81;21034;-43
2022/08/25 00:51:44;;;;;;;12.03;5.20;;;;;;;21.91;48.28;99867.90;1758120;81;21016;-43
2022/08/25 00:54:16;;;;;;;16.37;5.28;;;;;;;21.90;48.31;99860.81;1758197;81;21024;-43
2022/08/25 00:56:44;;;;;;;14.28;5.17;;;;;;;21.86;48.33;99862.27;1757920;81;21235;-43
2022/08/25 00:59:11;;;;;;;11.95;5.20;;;;;;;21.84;48.45;99859.14;1759716;81;21008;-43
2022/08/25 01:01:38;;;;;;;12.53;5.60;;;;;;;21.83;48.48;99854.84;1735554;81;20959;-43
2022/08/25 01:04:06;;;;;;;10.28;4.92;;;;;;;21.82;48.58;99860.78;1758232;81;20983;-43
2022/08/25 01:06:36;;;;;;;10.10;4.97;;;;;;;21.80;48.69;99852.13;1759947;81;21075;-43
2022/08/25 01:09:04;;;;;;;11.70;4.90;;;;;;;21.80;48.69;99852.91;1760149;81;21225;-43
2022/08/25 01:11:31;;;;;;;11.28;5.08;;;;;;;21.78;48.63;99849.81;1759445;81;21526;-43
2022/08/25 01:14:01;;;;;;;11.08;5.10;;;;;;;21.75;48.73;99849.27;1759620;81;20988;-43
2022/08/25 01:16:27;;;;;;;13.58;5.42;;;;;;;21.73;48.72;99850.90;1753064;81;21522;-43
2022/08/25 01:18:56;;;;;;;14.07;5.35;;;;;;;21.72;48.69;99857.62;1759000;81;21028;-43
2022/08/25 01:21:25;;;;;;;10.48;4.90;;;;;;;21.68;48.75;99856.31;1758036;81;21126;-43
2022/08/25 01:23:52;;;;;;;12.75;4.92;;;;;;;21.66;48.65;99849.05;1758886;81;21734;-43
2022/08/25 01:26:23;;;;;;;12.68;4.90;;;;;;;21.62;48.88;99846.36;1759221;81;21094;-42
2022/08/25 01:31:25;;;;;;;12.63;5.25;;;;;;;21.56;49.02;99837.00;1736132;81;21048;-43
2022/08/25 01:33:52;;;;;;;9.70;5.28;;;;;;;21.54;48.98;99845.53;1759405;81;21321;-43
2022/08/25 01:36:20;;;;;;;13.65;4.87;;;;;;;21.51;49.04;99844.98;1753450;81;21074;-43
2022/08/25 01:38:48;;;;;;;12.47;4.85;;;;;;;21.49;49.05;99841.87;1758426;81;21040;-43
2022/08/25 01:41:31;;;;;;;8.60;5.00;;;;;;;21.47;49.11;99842.89;1758467;81;21079;-43
2022/08/25 01:44:00;;;;;;;16.17;5.60;;;;;;;21.45;49.10;99837.00;1755975;81;21059;-43
2022/08/25 01:46:27;;;;;;;11.97;5.28;;;;;;;21.42;49.07;99841.98;1760546;81;21549;-43
2022/08/25 01:48:55;;;;;;;10.03;4.85;;;;;;;21.40;49.09;99837.48;1759280;81;21054;-43
2022/08/25 01:51:24;;;;;;;9.00;4.87;;;;;;;21.37;49.15;99840.50;1760528;81;20972;-43
2022/08/25 01:53:51;;;;;;;14.63;5.42;;;;;;;21.35;49.16;99841.50;1759698;81;21694;-43
2022/08/25 01:56:18;;;;;;;10.65;5.25;;;;;;;21.33;49.29;99844.52;1759697;81;21027;-43
2022/08/25 01:58:48;;;;;;;9.73;4.92;;;;;;;21.30;49.43;99846.74;1759872;81;23144;-43
2022/08/25 02:01:22;;;;;;;10.98;4.92;;;;;;;21.27;49.50;99849.73;1758888;81;21554;-43
2022/08/25 02:03:52;;;;;;;10.68;4.70;;;;;;;21.25;49.59;99844.62;1759742;81;21073;-43
2022/08/25 02:06:24;;;;;;;14.13;5.33;;;;;;;21.23;49.75;99849.80;1758415;81;21608;-43
2022/08/25 02:08:52;;;;;;;15.32;5.37;;;;;;;21.22;49.81;99845.47;1759101;81;21063;-43
2022/08/25 02:11:20;;;;;;;15.20;5.37;;;;;;;21.19;49.97;99839.42;1757636;81;21746;-43
2022/08/25 02:13:47;;;;;;;14.28;5.03;;;;;;;21.17;49.97;99843.19;1759765;81;21560;-43
2022/08/25 02:16:19;;;;;;;10.35;5.35;;;;;;;21.16;50.00;99845.77;1755933;81;20996;-43
2022/08/25 02:18:47;;;;;;;15.68;5.75;;;;;;;21.14;50.15;99841.28;1761582;81;21108;-43
2022/08/25 02:21:14;;;;;;;13.10;5.55;;;;;;;21.13;50.23;99843.04;1760192;81;21005;-43
2022/08/25 02:23:41;;;;;;;11.12;5.37;;;;;;;21.11;50.32;99838.53;1760062;81;21082;-43
2022/08/25 02:26:09;;;;;;;12.95;5.80;;;;;;;21.08;50.42;99840.16;1759405;81;21079;-43
2022/08/25 02:28:36;;;;;;;11.20;5.35;;;;;;;21.06;50.60;99841.77;1759658;81;21525;-43
2022/08/25 02:31:05;;;;;;;12.18;5.03;;;;;;;21.04;50.63;99838.66;1759150;81;21091;-43
2022/08/25 02:33:32;;;;;;;11.63;5.33;;;;;;;21.02;50.77;99836.31;1759064;81;21036;-43
2022/08/25 02:35:59;;;;;;;11.65;5.30;;;;;;;21.01;50.82;99840.27;1758399;81;21140;-43
2022/08/25 02:38:27;;;;;;;11.85;5.30;;;;;;;20.98;50.94;99836.97;1760750;81;21052;-43
2022/08/25 02:40:57;;;;;;;14.40;5.35;;;;;;;20.98;51.09;99836.97;1759442;81;21498;-43
2022/08/25 02:43:24;;;;;;;;;;;;;;;20.96;51.20;99839.36;1763430;81;21507;-43
2022/08/25 02:45:54;;;;;;;11.60;5.12;;;;;;;20.93;51.33;99837.45;1759053;81;20168;-43
2022/08/25 02:48:22;;;;;;;11.30;5.35;;;;;;;20.81;51.61;99839.42;1759797;81;25086;-43
2022/08/25 02:50:51;;;;;;;11.48;5.28;;;;;;;20.81;51.82;99839.42;1760603;81;21585;-43
2022/08/25 02:53:19;;;;;;;11.00;5.28;;;;;;;20.80;51.91;99840.61;1759627;81;21019;-43
2022/08/25 02:55:46;;;;;;;11.90;5.28;;;;;;;20.79;52.07;99835.69;1760146;81;22043;-43
2022/08/25 02:58:14;;;;;;;11.55;5.90;;;;;;;20.76;52.14;99837.91;1758348;81;21569;-43
2022/08/25 03:00:42;;;;;;;14.05;5.85;;;;;;;20.76;52.28;99846.78;1760308;81;21168;-43
2022/08/25 03:03:08;;;;;;;11.85;5.78;;;;;;;20.73;52.47;99840.70;1760032;81;21058;-43
2022/08/25 03:05:36;;;;;;;10.35;6.20;;;;;;;20.71;52.68;99841.73;1758683;81;21042;-45
2022/08/25 03:08:04;;;;;;;10.90;4.72;;;;;;;20.69;52.76;99839.38;1758127;81;21043;-44
2022/08/25 03:10:31;;;;;;;14.18;6.00;;;;;;;20.67;52.84;99842.39;1760417;81;21074;-43
2022/08/25 03:12:58;;;;;;;11.57;5.40;;;;;;;20.66;52.98;99840.81;1759664;81;21246;-43
2022/08/25 03:15:26;;;;;;;8.18;5.37;;;;;;;20.63;52.96;99849.89;1760165;81;21551;-43
2022/08/25 03:17:54;;;;;;;13.98;5.85;;;;;;;20.62;52.94;99844.23;1760226;81;21542;-43
2022/08/25 03:20:22;;;;;;;13.38;5.47;;;;;;;20.61;52.96;99849.55;1761957;81;21473;-43
2022/08/25 03:22:49;;;;;;;10.30;5.47;;;;;;;20.60;53.04;99852.11;1759268;81;21549;-43
2022/08/25 03:28:03;;;;;;;13.40;5.62;;;;;;;20.58;53.20;99842.09;1754159;81;21579;-42
2022/08/25 03:30:30;;;;;;;10.80;5.35;;;;;;;20.57;53.28;99841.94;1758733;81;20924;-43
2022/08/25 03:32:57;;;;;;;10.23;5.15;;;;;;;20.56;53.31;99837.61;1758795;81;21221;-43
2022/08/25 03:35:24;;;;;;;9.83;5.55;;;;;;;20.28;53.27;99802.96;1760252;81;21051;-43
2022/08/25 03:37:58;;;;;;;12.40;5.72;;;;;;;20.57;53.34;99839.18;1760342;81;21305;-43
2022/08/25 03:40:25;;;;;;;9.68;5.87;;;;;;;20.56;53.31;99838.99;1761345;81;21027;-43
2022/08/25 03:42:54;;;;;;;15.75;5.83;;;;;;;20.56;53.38;99838.99;1759903;81;21008;-43
2022/08/25 03:45:21;;;;;;;8.95;5.65;;;;;;;20.56;53.54;99838.40;1757799;81;20999;-43
2022/08/25 03:47:49;;;;;;;15.50;5.60;;;;;;;20.56;53.67;99840.37;1758324;81;21040;-43
2022/08/25 03:50:17;;;;;;;16.05;5.90;;;;;;;20.55;53.66;99834.08;1757206;81;21131;-43
2022/08/25 03:52:44;;;;;;;13.60;5.70;;;;;;;20.56;53.66;99836.23;1758320;81;21114;-43
2022/08/25 03:55:12;;;;;;;13.20;5.55;;;;;;;20.58;53.74;99831.86;1758482;81;21003;-42
2022/08/25 03:57:39;;;;;;;13.18;5.50;;;;;;;20.59;53.52;99836.77;1758626;81;21055;-43
2022/08/25 04:00:09;;;;;;;12.82;5.67;;;;;;;20.60;53.49;99835.59;1760806;81;21000;-43
2022/08/25 04:02:38;;;;;;;10.65;6.03;;;;;;;20.62;53.56;99835.34;1761468;81;21150;-42
2022/08/25 04:05:07;;;;;;;13.18;5.47;;;;;;;20.64;53.38;99834.93;1760349;81;21075;-43
2022/08/25 04:07:35;;;;;;;10.63;6.22;;;;;;;20.66;53.36;99832.55;1759408;81;21023;-43
2022/08/25 04:10:06;;;;;;;10.68;5.17;;;;;;;20.68;53.40;99835.06;1759654;81;21363;-43
2022/08/25 04:12:34;;;;;;;9.30;5.53;;;;;;;20.72;53.36;99835.03;1762175;81;21068;-43
2022/08/25 04:15:03;;;;;;;10.20;6.10;;;;;;;20.74;53.39;99831.24;1759488;81;21131;-43
2022/08/25 04:17:30;;;;;;;14.33;6.07;;;;;;;20.76;53.47;99824.13;1759471;81;20893;-43
2022/08/25 04:19:58;;;;;;;14.60;6.58;;;;;;;20.79;53.41;99817.00;1759240;81;20960;-43
2022/08/25 04:22:25;;;;;;;12.18;5.80;;;;;;;20.83;53.39;99822.63;1759237;81;21039;-43
2022/08/25 04:24:52;;;;;;;11.88;6.10;;;;;;;20.87;53.27;99824.55;1759633;81;21043;-43
2022/08/25 04:27:20;;;;;;;9.83;5.72;;;;;;;20.90;53.06;99825.89;1761046;81;21238;-43
2022/08/25 04:29:47;;;;;;;12.75;5.92;;;;;;;20.94;53.16;99819.72;1754376;81;21016;-43
2022/08/25 04:32:14;;;;;;;10.55;6.08;;;;;;;20.97;53.07;99819.47;1758254;81;21027;-43
2022/08/25 04:34:42;;;;;;;13.50;5.90;;;;;;;21.00;52.93;99815.89;1760246;81;21058;-43
2022/08/25 04:37:09;;;;;;;10.88;6.45;;;;;;;21.05;53.00;99814.03;1761138;81;21091;-43
2022/08/25 04:39:36;;;;;;;9.65;5.95;;;;;;;21.08;53.00;99812.59;1759186;81;22205;-43
2022/08/25 04:42:04;;;;;;;13.25;6.10;;;;;;;21.13;52.96;99817.66;1760003;81;21000;-43
2022/08/25 04:44:32;;;;;;;11.33;5.45;;;;;;;21.18;52.83;99812.27;1758608;80;21103;-42
2022/08/25 04:46:59;;;;;;;12.10;5.97;;;;;;;21.23;52.82;99805.67;1755308;81;21586;-43
2022/08/25 04:49:26;;;;;;;9.38;5.53;;;;;;;21.29;52.57;99807.95;1749077;81;21043;-43
2022/08/25 04:51:55;;;;;;;13.25;5.75;;;;;;;21.33;52.63;99812.80;1744575;81;21551;-43
2022/08/25 04:54:22;;;;;;;10.00;5.70;;;;;;;21.37;52.51;99807.99;1757858;81;20945;-43
2022/08/25 04:56:50;;;;;;;11.95;5.95;;;;;;;21.43;52.45;99812.61;1739490;81;20940;-43
2022/08/25 04:59:17;;;;;;;9.08;5.40;;;;;;;21.47;52.36;99804.27;1748605;81;21020;-43
2022/08/25 05:01:49;;;;;;;11.40;5.75;;;;;;;21.53;52.14;99810.27;1743866;81;21454;-43
2022/08/25 05:04:14;;;;;;;10.95;6.17;;;;;;;21.59;52.12;99811.94;1757468;81;21258;-43
2022/08/25 05:06:42;;;;;;;10.13;5.53;;;;;;;21.64;52.06;99803.14;1738845;81;20972;-43
2022/08/25 05:09:10;;;;;;;14.95;6.12;;;;;;;21.67;51.95;99800.34;1740850;81;21003;-43
2022/08/25 05:11:37;;;;;;;9.43;5.37;;;;;;;21.73;51.83;99796.48;1751091;81;21710;-43
2022/08/25 05:14:10;;;;;;;10.35;6.10;;;;;;;21.79;51.92;99803.64;1744868;81;20988;-43
2022/08/25 05:16:33;;;;;;;11.00;5.87;;;;;;;21.84;51.83;99799.80;1738448;81;21242;-43
2022/08/25 05:19:00;;;;;;;9.43;5.33;;;;;;;21.89;51.95;99797.92;1760847;81;20944;-43
2022/08/25 05:21:28;;;;;;;10.78;5.92;;;;;;;21.94;51.58;99798.05;1730077;81;21479;-43
2022/08/25 05:23:59;;;;;;;11.28;6.72;;;;;;;22.00;51.49;99800.50;1753410;81;21607;-43
2022/08/25 05:26:29;;;;;;;11.40;5.97;;;;;;;22.05;51.40;99797.23;1743912;81;21000;-43
2022/08/25 05:28:57;;;;;;;9.40;6.65;;;;;;;22.11;51.19;99792.78;1744088;81;21200;-43
2022/08/25 05:31:25;;;;;;;12.37;6.92;;;;;;;22.17;50.94;99789.70;1742166;81;21068;-43
2022/08/25 05:33:53;;;;;;;9.43;6.35;;;;;;;22.23;50.68;99792.11;1741508;81;21009;-43
2022/08/25 05:36:20;;;;;;;12.07;5.90;;;;;;;22.29;50.70;99795.16;1757545;81;21056;-43
2022/08/25 05:38:48;;;;;;;13.13;6.10;;;;;;;22.35;50.61;99792.85;1729210;81;21012;-43
2022/08/25 05:41:18;;;;;;;9.55;5.97;;;;;;;22.43;50.24;99792.08;1742699;81;21166;-43
2022/08/25 05:43:47;;;;;;;14.15;6.15;;;;;;;22.49;50.29;99795.89;1729928;81;21027;-43
2022/08/25 05:46:16;;;;;;;8.78;6.00;;;;;;;22.58;50.11;99794.69;1737293;81;21312;-43
2022/08/25 05:48:43;;;;;;;12.18;6.92;;;;;;;22.66;49.80;99803.58;1735943;81;20968;-43
2022/08/25 05:51:10;;;;;;;11.25;5.92;;;;;;;22.74;49.40;99789.82;1744519;81;20997;-43
2022/08/25 05:53:41;;;;;;;12.90;6.92;;;;;;;22.82;49.00;99793.96;1749669;81;21805;-43
2022/08/25 05:56:08;;;;;;;11.78;6.45;;;;;;;22.90;48.92;99788.42;1735208;81;20908;-42
2022/08/25 05:58:35;;;;;;;10.93;6.58;;;;;;;22.99;48.51;99794.75;1759165;81;21159;-43
2022/08/25 06:03:49;;;;;;;11.53;6.28;;;;;;;23.15;48.39;99787.80;1729482;81;21051;-43
2022/08/25 06:06:17;;;;;;;18.75;6.62;;;;;;;23.23;48.20;99790.58;1734081;81;21456;-43
2022/08/25 06:08:44;;;;;;;8.60;5.83;;;;;;;23.32;48.39;99785.20;1738422;81;20984;-43
2022/08/25 06:11:12;;;;;;;11.22;6.50;;;;;;;23.39;48.19;99786.38;1759241;81;21055;-43
2022/08/25 06:13:39;;;;;;;11.40;6.15;;;;;;;23.49;48.15;99782.59;1738298;81;21051;-43
2022/08/25 06:16:07;;;;;;;12.47;5.60;;;;;;;23.61;48.15;99790.78;1754212;81;21316;-43
2022/08/25 06:18:34;;;;;;;11.05;6.12;;;;;;;23.70;48.24;99794.47;1733751;81;21132;-43
2022/08/25 06:21:12;;;;;;;10.28;6.25;;;;;;;23.80;47.64;99790.63;1739097;81;20975;-43
2022/08/25 06:23:39;;;;;;;12.50;6.08;;;;;;;23.88;47.25;99788.42;1729084;81;21159;-43
2022/08/25 06:26:08;;;;;;;11.33;6.30;;;;;;;23.99;47.58;99790.89;1753603;81;21068;-43
2022/08/25 06:28:35;;;;;;;7.87;6.17;;;;;;;24.10;46.80;99794.14;1714422;81;21046;-43
2022/08/25 06:31:03;;;;;;;9.63;5.80;;;;;;;24.20;46.28;99794.47;1753610;81;21234;-43
2022/08/25 06:33:30;;;;;;;10.35;5.90;;;;;;;24.30;45.71;99789.82;1755586;81;21068;-43
2022/08/25 06:35:58;;;;;;;9.25;5.75;;;;;;;24.40;45.72;99788.09;1736646;81;21020;-43
2022/08/25 06:38:25;;;;;;;10.95;5.62;;;;;;;24.50;45.17;99791.14;1739343;81;21068;-43
2022/08/25 06:40:52;;;;;;;8.95;5.58;;;;;;;24.63;45.11;99789.77;1733933;81;21044;-43
2022/08/25 06:43:20;;;;;;;12.33;5.85;;;;;;;24.75;44.76;99785.42;1753470;81;23231;-43
2022/08/25 06:45:47;;;;;;;9.98;5.83;;;;;;;24.86;44.40;99786.64;1750885;81;21656;-43
2022/08/25 06:48:14;;;;;;;9.15;6.10;;;;;;;24.99;43.96;99786.64;1760755;81;21571;-43
2022/08/25 06:50:42;;;;;;;8.93;6.03;;;;;;;25.10;44.24;99789.23;1755151;81;21063;-44
2022/08/25 06:53:09;;;;;;;10.78;6.20;;;;;;;25.23;44.47;99787.80;1743826;81;21098;-43
2022/08/25 06:55:36;;;;;;;11.38;5.97;;;;;;;25.36;44.36;99787.17;1743557;81;22153;-43
2022/08/25 06:58:03;;;;;;;12.20;6.45;;;;;;;25.49;44.03;99789.28;1730348;81;20959;-43
2022/08/25 07:00:31;;;;;;;11.65;6.42;;;;;;;25.64;44.31;99792.97;1737424;81;21031;-43
2022/08/25 07:03:00;;;;;;;17.75;6.60;;;;;;;25.77;43.95;99795.06;1752889;81;21051;-43
2022/08/25 07:05:28;;;;;;;13.08;7.22;;;;;;;25.90;44.25;99789.59;1742049;81;21086;-43
2022/08/25 07:07:55;;;;;;;13.20;6.58;;;;;;;26.05;44.18;99794.63;1747195;81;21096;-43
2022/08/25 07:10:24;;;;;;;10.20;6.22;;;;;;;26.17;43.76;99793.17;1755705;81;21008;-43
2022/08/25 07:12:52;;;;;;;11.95;6.62;;;;;;;26.31;43.18;99791.27;1741711;81;21545;-43
2022/08/25 07:15:19;;;;;;;12.03;6.87;;;;;;;26.45;42.96;99790.55;1743464;81;21653;-43
2022/08/25 07:17:48;;;;;;;10.98;6.62;;;;;;;26.61;42.55;99787.53;1748065;81;21023;-43
2022/08/25 07:20:16;;;;;;;9.08;5.92;;;;;;;26.73;42.16;99787.41;1740107;81;21105;-43
2022/08/25 07:22:43;;;;;;;9.15;6.20;;;;;;;26.88;41.84;99787.63;1732061;81;21079;-43
2022/08/25 07:25:10;;;;;;;10.03;5.45;;;;;;;27.02;41.33;99786.27;1747615;81;21080;-43
2022/08/25 07:27:38;;;;;;;9.70;6.28;;;;;;;27.13;41.20;99794.34;1747298;81;21004;-43
2022/08/25 07:30:08;;;;;;;11.95;5.80;;;;;;;27.27;40.77;99786.62;1753318;81;21087;-43
2022/08/25 07:32:35;;;;;;;14.35;6.53;;;;;;;27.41;40.63;99783.22;1749727;81;21735;-43
2022/08/25 07:35:14;;;;;;;11.45;6.03;;;;;;;27.57;40.31;99777.38;1759791;81;20991;-44
2022/08/25 07:37:48;;;;;;;8.90;5.90;;;;;;;27.71;40.33;99785.10;1753061;81;20995;-43
2022/08/25 07:40:20;;;;;;;9.98;6.08;;;;;;;27.86;39.86;99774.87;1749815;81;21087;-43
2022/08/25 07:42:49;;;;;;;12.73;5.62;;;;;;;27.98;38.86;99772.51;1754907;81;21524;-43
2022/08/25 07:45:17;;;;;;;9.30;5.50;;;;;;;28.09;38.04;99768.62;1759679;81;21221;-43
2022/08/25 07:47:44;;;;;;;12.60;5.28;;;;;;;28.22;36.58;99764.91;1733499;81;20940;-43
2022/08/25 07:50:12;;;;;;;11.57;5.15;;;;;;;28.31;35.55;99764.25;1738172;81;21533;-43
2022/08/25 07:52:40;;;;;;;7.37;4.90;;;;;;;28.41;35.33;99757.39;1747646;81;21542;-43
2022/08/25 07:55:08;;;;;;;11.85;5.33;;;;;;;28.52;35.33;99761.05;1738893;81;21133;-43
2022/08/25 07:57:39;;;;;;;10.63;5.67;;;;;;;28.67;35.50;99754.93;1744458;81;21159;-43
2022/08/25 08:00:09;;;;;;;11.38;5.47;;;;;;;28.81;35.51;99748.67;1733592;81;20981;-43
2022/08/25 08:02:39;;;;;;;7.67;5.33;;;;;;;28.94;34.90;99746.44;1738954;81;21505;-43
2022/08/25 08:05:08;;;;;;;7.60;5.10;;;;;;;29.07;34.93;99746.80;1729209;81;20990;-43
2022/08/25 08:07:37;;;;;;;12.15;5.45;;;;;;;29.21;34.70;99751.04;1750231;81;21081;-43
2022/08/25 08:10:06;;;;;;;8.28;5.00;;;;;;;29.35;34.42;99741.95;1733633;81;21200;-43
2022/08/25 08:12:35;;;;;;;13.20;5.60;;;;;;;29.49;33.74;99739.03;1738114;81;20955;-43
2022/08/25 08:15:03;;;;;;;10.58;5.03;;;;;;;29.63;34.04;99741.08;1744385;81;20975;-44
2022/08/25 08:17:30;;;;;;;9.80;5.47;;;;;;;29.80;33.29;99740.77;1748205;81;21039;-43
2022/08/25 08:19:58;;;;;;;10.18;4.90;;;;;;;29.95;32.32;99742.81;1736197;81;21531;-43
2022/08/25 08:22:24;;;;;;;7.85;4.70;;;;;;;30.09;31.42;99740.63;1741243;81;21612;-44
2022/08/25 08:24:51;;;;;;;8.98;5.40;;;;;;;30.21;31.17;99739.55;1743424;81;21063;-43
2022/08/25 08:27:18;;;;;;;9.33;5.58;;;;;;;30.33;30.62;99734.28;1746015;81;20941;-43
2022/08/25 08:29:46;;;;;;;10.03;5.30;;;;;;;30.41;30.53;99728.42;1733776;81;21582;-43
2022/08/25 08:32:14;;;;;;;10.75;4.20;;;;;;;30.52;30.88;99731.42;1739053;81;21083;-43
2022/08/25 08:34:41;;;;;;;14.03;4.60;;;;;;;30.64;29.63;99730.30;1753593;81;21094;-43
2022/08/25 08:37:08;;;;;;;10.58;4.87;;;;;;;30.77;29.54;99726.41;1749883;81;21567;-43
2022/08/25 08:39:36;;;;;;;9.40;4.50;;;;;;;30.91;29.91;99726.97;1744545;81;20977;-43
2022/08/25 08:42:22;;;;;;;12.98;4.03;;;;;;;31.01;29.73;99721.38;1749444;81;21087;-43
2022/08/25 08:45:04;;;;;;;8.73;4.10;;;;;;;31.14;28.73;99716.84;1740210;81;21048;-44
2022/08/25 08:48:03;;;;;;;6.70;4.30;;;;;;;31.26;28.42;99724.89;1745586;81;21192;-43
2022/08/25 08:50:59;;;;;;;9.83;3.92;;;;;;;31.40;28.30;99714.22;1738062;81;20999;-44
2022/08/25 08:53:52;;;;;;;7.92;3.47;;;;;;;31.55;27.71;99713.34;1744710;81;20979;-44
2022/08/25 08:56:30;;;;;;;13.15;4.28;;;;;;;31.65;27.49;99710.55;1739693;81;20971;-44
2022/08/25 08:59:11;;;;;;;5.83;3.50;;;;;;;31.78;27.00;99712.31;1757602;81;21087;-43
2022/08/25 09:01:56;;;;;;;8.83;3.58;;;;;;;31.86;26.11;99713.39;1746282;81;22035;-43
2022/08/25 09:04:35;;;;;;;6.15;3.27;;;;;;;31.95;25.89;99711.84;1740274;81;21667;-43
2022/08/25 09:07:06;;;;;;;6.75;3.72;;;;;;;32.04;25.79;99708.84;1740377;81;21566;-43
2022/08/25 09:09:34;;;;;;;6.12;3.12;;;;;;;32.16;25.57;99704.88;1761141;81;21106;-43
2022/08/25 09:12:21;;;;;;;8.13;3.60;;;;;;;32.27;24.84;99703.56;1749000;81;21461;-43
2022/08/25 09:16:53;;;;;;;8.53;3.00;;;;;;;32.38;24.25;99700.70;1760828;81;21139;-43
2022/08/25 09:18:12;;;;;;;12.78;4.42;;;;;;;32.44;24.42;99703.66;1744065;81;21546;-44
2022/08/25 09:20:47;;;;;;;11.48;3.58;;;;;;;32.54;24.62;99699.38;1702749;81;20976;-43
2022/08/25 09:25:20;;;;;;;11.22;3.98;;;;;;;32.85;24.71;99697.14;1779085;79;22651;-42
2022/08/25 09:28:07;;;;;;;6.97;3.12;;;;;;;32.92;24.40;99692.43;1730748;82;21564;-43
2022/08/25 09:31:03;;;;;;;5.65;2.98;;;;;;;33.10;24.14;99692.64;1734595;82;21831;-43
2022/08/25 09:33:33;;;;;;;13.60;3.37;;;;;;;33.26;23.67;99679.95;1739129;82;21009;-43
2022/08/25 09:36:03;;;;;;;6.60;3.00;;;;;;;33.39;22.88;99680.98;1734042;82;20970;-43
2022/08/25 09:38:31;;;;;;;6.45;3.10;;;;;;;33.54;23.12;99683.57;1739308;82;21003;-43
2022/08/25 09:41:02;;;;;;;5.50;2.80;;;;;;;33.72;22.86;99676.70;1739340;82;21029;-42
2022/08/25 09:43:36;;;;;;;5.90;3.35;;;;;;;33.89;22.84;99682.44;1739364;82;21195;-43
2022/08/25 09:46:28;;;;;;;9.28;2.90;;;;;;;34.09;23.00;99674.38;1739077;82;21531;-43
2022/08/25 09:48:58;;;;;;;14.80;9.65;;;;;;;34.33;22.48;99684.47;1739231;82;21564;-43
2022/08/25 09:51:35;;;;;;;10.45;3.40;;;;;;;34.56;21.63;99679.56;1739161;82;21035;-43
2022/08/25 09:54:16;;;;;;;8.30;2.98;;;;;;;34.75;21.74;99674.91;1738724;82;21034;-43
2022/08/25 09:56:57;;;;;;;6.75;2.80;;;;;;;34.94;21.81;99677.91;1739122;82;21956;-43
2022/08/25 09:59:33;;;;;;;7.50;2.55;;;;;;;35.15;21.00;99672.65;1739108;82;20943;-43
2022/08/25 10:02:07;;;;;;;4.35;2.33;;;;;;;35.30;20.46;99671.05;1739083;82;21058;-43
2022/08/25 10:04:37;;;;;;;6.87;2.98;;;;;;;35.40;19.87;99663.05;1720422;82;21021;-43
2022/08/25 10:07:27;;;;;;;7.90;2.70;;;;;;;35.46;20.30;99659.55;1739067;82;21083;-43
2022/08/25 10:09:57;;;;;;;;;;;;;;;35.58;19.76;99659.59;1741690;82;21137;-43
2022/08/25 10:12:35;;;;;;;6.67;2.60;;;;;;;35.66;19.62;99665.45;1738925;82;20142;-44
2022/08/25 10:15:27;;;;;;;7.80;2.87;;;;;;;35.58;19.27;99658.83;1738583;82;21025;-43
2022/08/25 10:17:55;;;;;;;5.58;2.50;;;;;;;35.61;19.27;99664.18;1739043;82;21003;-43
2022/08/25 10:20:26;;;;;;;4.85;2.22;;;;;;;35.67;19.30;99653.66;1739276;82;20966;-43
2022/08/25 10:22:58;;;;;;;5.10;2.12;;;;;;;35.79;19.43;99648.66;1737271;81;21198;-44
2022/08/25 10:25:29;;;;;;;5.75;2.27;;;;;;;35.97;18.90;99646.56;1706582;83;21514;-43
2022/08/25 10:28:23;;;;;;;4.65;2.10;;;;;;;36.12;18.67;99654.63;1728640;83;21002;-43
2022/08/25 10:31:11;;;;;;;4.62;2.33;;;;;;;36.23;18.18;99650.97;1728133;82;20990;-43
2022/08/25 10:33:50;;;;;;;4.30;2.30;;;;;;;36.34;18.60;99643.15;1728571;83;21070;-43
2022/08/25 10:36:24;;;;;;;4.83;2.67;;;;;;;36.54;18.91;99640.48;1728104;82;21245;-43
2022/08/25 10:38:59;;;;;;;8.25;2.37;;;;;;;36.76;18.80;99639.45;1727820;82;21077;-43
2022/08/25 10:41:57;;;;;;;9.40;2.50;;;;;;;36.94;18.01;99639.45;1728156;83;21014;-43
2022/08/25 10:47:45;;;;;;;4.50;2.47;;;;;;;37.26;18.41;99631.08;1728251;83;21094;-43
2022/08/25 10:50:29;;;;;;;6.97;2.85;;;;;;;37.41;17.51;99629.94;1727993;82;21144;-43
2022/08/25 10:53:23;;;;;;;3.90;2.30;;;;;;;37.48;17.69;99628.53;1728180;83;21033;-43
2022/08/25 10:56:16;;;;;;;4.83;2.12;;;;;;;37.49;16.55;99626.47;1728079;83;21034;-43
2022/08/25 10:58:58;;;;;;;6.70;2.98;;;;;;;37.53;16.59;99631.95;1746281;82;21051;-43
2022/08/25 11:01:52;;;;;;;7.67;2.42;;;;;;;37.69;16.79;99624.50;1748873;82;21084;-43
2022/08/25 11:04:25;;;;;;;7.55;2.60;;;;;;;37.80;17.09;99629.32;1745446;82;21150;-44
2022/08/25 11:07:06;;;;;;;4.58;2.83;;;;;;;37.96;16.98;99626.06;1749104;82;20968;-44
2022/08/25 11:09:39;;;;;;;4.85;2.67;;;;;;;38.13;17.02;99625.79;1748692;82;20997;-43
2022/08/25 11:12:33;;;;;;;7.28;2.40;;;;;;;38.33;17.11;99617.30;1749011;82;21007;-44
2022/08/25 11:15:24;;;;;;;5.78;2.33;;;;;;;38.54;17.24;99618.93;1748608;82;21076;-44
2022/08/25 11:17:59;;;;;;;6.08;2.70;;;;;;;38.77;17.24;99612.16;1748876;82;21542;-43
2022/08/25 11:20:45;;;;;;;4.00;2.67;;;;;;;39.00;17.50;99601.86;1748740;82;20980;-43
2022/08/25 11:23:29;;;;;;;7.87;2.70;;;;;;;39.22;17.04;99607.65;1747813;81;21044;-44
2022/08/25 11:26:01;;;;;;;8.38;2.77;;;;;;;39.26;16.71;99609.51;1742988;81;21025;-43
2022/08/25 11:28:55;;;;;;;5.65;2.50;;;;;;;39.11;16.28;99604.44;1743791;81;21002;-44
2022/08/25 11:31:22;;;;;;;6.87;2.80;;;;;;;39.01;16.58;99596.30;1743454;82;21235;-44
2022/08/25 11:33:50;;;;;;;7.30;2.50;;;;;;;39.16;16.75;99591.44;1743407;81;20922;-44
2022/08/25 11:36:27;;;;;;;;;;;;;;;39.35;16.51;99589.85;1746100;81;21492;-44
2022/08/25 11:39:31;;;;;;;5.53;2.70;;;;;;;39.57;15.94;99582.19;1743747;82;20146;-44
2022/08/25 11:42:32;;;;;;;7.75;2.52;;;;;;;39.72;16.20;99584.38;1743601;82;21006;-44
2022/08/25 11:45:19;;;;;;;4.58;2.12;;;;;;;40.08;15.83;99573.13;1743712;82;21195;-43
2022/08/25 11:48:21;;;;;;;5.70;2.30;;;;;;;40.42;15.78;99571.53;1743700;81;21004;-44
2022/08/25 11:51:08;;;;;;;4.62;2.10;;;;;;;40.68;14.98;99564.92;1743713;82;21010;-44
2022/08/25 11:53:41;;;;;;;4.12;2.00;;;;;;;40.88;14.49;99563.27;1743777;81;21061;-44
2022/08/25 11:56:28;;;;;;;7.12;2.22;;;;;;;41.26;13.50;99559.09;1743575;82;21013;-44
2022/08/25 11:58:56;;;;;;;4.27;2.00;;;;;;;41.26;13.50;99559.09;1743832;82;21222;-44
2022/08/25 12:01:44;;;;;;;4.37;2.00;;;;;;;41.35;13.94;99557.10;1743307;82;21651;-44
2022/08/25 12:04:34;;;;;;;4.50;2.42;;;;;;;41.46;13.86;99564.54;1707832;83;21016;-44